• Join FlightAware (Why Join?)
  • Login
  • US Flag 
07:49AM EST


 

Airport Tracker/Info


-or-


 

Live Flight TrackerFlight Track Log ✈ UAL332 ✈ 26-Apr-2013 ✈ KSMF - KORD

Flight Track Log - Related Links

Times and Time Zones

All times are in EDT time to prevent confusion due to time zone crossing. See the UAL332 flight status page for this flight to view local times or setup timezone preferences in your user account.

Time Position Orientation Groundspeed Altitude Reporting Facility
EDT Latitude Longitude Course Direction KTS MPH feet Rate Location/Type
08:57PM 38.6500 -121.5167 76° East 213 245 2,000  Level Northern Cal TRACON
08:58PM 38.7695 -121.3000 142° Southeast  Level Estimated
08:58PM 38.6167 -121.4500 123° Southeast 260 299 4,600  Level Northern Cal TRACON
08:59PM 38.8063 -121.1543 80° East  Level Estimated
09:00PM 38.8429 -121.0085 76° East  Level Estimated
09:00PM 38.6042 -121.3008 96° East 281 323 9,100  Level Oakland Center
09:01PM 38.8793 -120.8626 78° East  Level Estimated
09:01PM 38.6050 -121.1975 89° East 292 336 11,300  Level Oakland Center
09:02PM 38.7688 -120.8047 158° South  Level FlightAware Approximate
09:02PM 38.6058 -121.0522 90° East 370 426 13,800  Level Oakland Center
09:03PM 38.8055 -120.6590 76° East  Level Estimated
09:03PM 38.6053 -120.9214 90° East 368 423 17,800  Level Oakland Center
09:04PM 38.6044 -120.7889 90° East 372 428 18,600 1,500 Climbing Oakland Center
09:05PM 38.6047 -120.6411 90° East 410 472 20,900 2,340 Climbing Oakland Center
09:06PM 38.6039 -120.5025 90° East 393 452 23,500 1,920 Climbing Oakland Center
09:07PM 38.6033 -120.3600 90° East 399 459 24,900 1,440 Climbing Oakland Center
09:08PM 38.6011 -120.1847 91° East 410 472 26,500 1,380 Climbing Oakland Center
09:09PM 38.6042 -120.0364 88° East 415 478 27,800 1,200 Climbing Oakland Center
09:10PM 38.6239 -119.8878 80° East 420 483 29,000 1,020 Climbing Oakland Center
09:11PM 38.6419 -119.7406 81° East 430 495 30,000 1,080 Climbing Oakland Center
09:12PM 38.6600 -119.5886 81° East 434 499 31,300 1,200 Climbing Oakland Center
09:13PM 38.6783 -119.4367 81° East 434 499 32,500 1,020 Climbing Oakland Center
09:14PM 38.6964 -119.2844 81° East 435 501 33,400 1,020 Climbing Oakland Center
09:15PM 38.7183 -119.1014 81° East 434 499 34,600 1,020 Climbing Oakland Center
09:16PM 38.7361 -118.9500 81° East 434 499 35,500 840 Climbing Oakland Center
09:17PM 38.7531 -118.7986 82° East 432 497 36,400 720 Climbing Oakland Center
09:18PM 38.7708 -118.6461 81° East 436 502 37,000 240 Climbing Oakland Center
09:19PM 38.7881 -118.4944 82° East 435 501 37,000  Level Oakland Center
09:20PM 38.8058 -118.3367 82° East 447 514 37,000  Level Oakland Center
09:21PM 38.8242 -118.1781 82° East 451 519 37,000  Level Oakland Center
09:22PM 38.8406 -118.0197 82° East 450 518 37,000  Level Oakland Center
09:23PM 38.8614 -117.8325 82° East 446 513 37,000  Level Oakland Center
09:24PM 38.8781 -117.6742 82° East 445 512 37,000  Level Oakland Center
09:25PM 38.8936 -117.5172 83° East 443 510 37,000  Level Oakland Center
09:26PM 38.9094 -117.3617 82° East 448 516 37,000  Level Oakland Center
09:27PM 38.9250 -117.2042 83° East 446 513 37,000  Level Oakland Center
09:28PM 38.9419 -117.0400 82° East 447 514 37,000  Level Oakland Center
09:29PM 38.9578 -116.8819 83° East 445 512 37,000  Level Oakland Center
09:30PM 38.9694 -116.7561 83° East 445 512 37,000  Level Salt Lake Center
09:31PM 38.9847 -116.5975 83° East 445 512 37,000  Level Salt Lake Center
09:32PM 38.9997 -116.4386 83° East 447 514 37,000  Level Salt Lake Center
09:33PM 39.0172 -116.2481 83° East 447 514 37,000  Level Salt Lake Center
09:34PM 39.0319 -116.0881 83° East 450 518 37,000  Level Salt Lake Center
09:35PM 39.0458 -115.9289 84° East 449 517 37,000  Level Salt Lake Center
09:36PM 39.0597 -115.7711 83° East 445 512 37,000  Level Salt Lake Center
09:37PM 39.0747 -115.6117 83° East 447 514 37,000  Level Salt Lake Center
09:39PM 39.0875 -115.4528 84° East 446 513 37,000  Level Salt Lake Center
09:40PM 39.1031 -115.2906 83° East 453 521 37,000  Level Salt Lake Center
09:41PM 39.1161 -115.1306 84° East 451 519 37,000  Level Salt Lake Center
09:42PM 39.1278 -114.9722 85° East 446 513 37,000  Level Salt Lake Center
09:43PM 39.1439 -114.7803 84° East 448 516 37,000  Level Salt Lake Center
09:44PM 39.1575 -114.6197 84° East 451 519 37,000 -60 Level Salt Lake Center
09:45PM 39.1697 -114.4625 84° East 443 510 36,900  Descending Salt Lake Center
09:46PM 39.1817 -114.3033 84° East 443 510 37,000  Climbing Salt Lake Center
09:47PM 39.1939 -114.1444 84° East 444 511 37,000  Level Salt Lake Center
09:48PM 39.2056 -113.9858 85° East 445 512 37,000  Level Salt Lake Center
09:49PM 39.2167 -113.8292 85° East 441 507 37,000  Level Salt Lake Center
09:50PM 39.2286 -113.6719 84° East 440 506 37,000  Level Salt Lake Center
09:51PM 39.2400 -113.4831 85° East 442 509 37,000  Level Salt Lake Center
09:52PM 39.2506 -113.3253 85° East 442 509 37,000  Level Salt Lake Center
09:53PM 39.2617 -113.1664 85° East 444 511 37,000  Level Salt Lake Center
09:54PM 39.2714 -113.0053 85° East 448 516 37,000  Level Salt Lake Center
09:55PM 39.2814 -112.8467 85° East 445 512 37,000  Level Salt Lake Center
09:56PM 39.2922 -112.6875 85° East 445 512 37,000  Level Salt Lake Center
09:57PM 39.3042 -112.5258 84° East 445 512 37,000  Level Salt Lake Center
09:58PM 39.3403 -112.3758 73° East 441 507 37,000  Level Salt Lake Center
09:59PM 39.3914 -112.1994 69° East 438 504 37,000  Level Salt Lake Center
10:00PM 39.4342 -112.0508 70° East 441 507 37,000  Level Salt Lake Center
10:01PM 39.4756 -111.9019 70° East 442 509 37,000  Level Salt Lake Center
10:02PM 39.5178 -111.7547 70° East 440 506 37,000  Level Salt Lake Center
10:03PM 39.5592 -111.6069 70° East 439 505 37,000  Level Salt Lake Center
10:04PM 39.5992 -111.4558 71° East 443 510 37,000  Level Salt Lake Center
10:05PM 39.6411 -111.3067 70° East 442 509 37,000  Level Salt Lake Center
10:06PM 39.6850 -111.1433 71° East 442 509 37,000  Level Salt Lake Center
10:07PM 39.7311 -110.9758 70° East 441 507 37,000  Level Salt Lake Center
10:08PM 39.7700 -110.8322 71° East 440 506 37,000  Level Salt Lake Center
10:09PM 39.8153 -110.6644 71° East 441 507 37,000  Level Salt Lake Center
10:10PM 39.8531 -110.5194 71° East 441 507 37,000  Level Salt Lake Center
10:11PM 39.8917 -110.3758 71° East 440 506 37,000  Level Salt Lake Center
10:12PM 39.9367 -110.2053 71° East 445 512 37,000  Level Salt Lake Center
10:13PM 39.9744 -110.0600 71° East 443 510 37,000  Level Salt Lake Center
10:14PM 40.0192 -109.8894 71° East 443 510 37,000  Level Salt Lake Center
10:16PM 40.0558 -109.7439 72° East 442 509 37,000  Level Salt Lake Center
10:17PM 40.0933 -109.5983 71° East 441 507 37,000  Level Salt Lake Center
10:17PM 40.1197 -109.4981 71° East 442 509 37,000  Level Denver Center
10:18PM 40.1367 -109.4292 72° East 439 505 37,000  Level Salt Lake Center
10:19PM 40.1744 -109.2861 71° East 434 499 37,000  Level Salt Lake Center
10:20PM 40.2158 -109.1169 72° East 436 502 37,000  Level Salt Lake Center
10:20PM 40.2347 -109.0422 72° East 436 502 37,000  Level Denver Center
10:21PM 40.2772 -108.8728 72° East 437 503 37,000  Level Denver Center
10:22PM 40.2883 -108.8269 72° East 437 503 37,000  Level Salt Lake Center
10:23PM 40.3283 -108.6658 72° East 435 501 37,000  Level Salt Lake Center
10:23PM 40.3547 -108.5600 72° East 433 498 37,000  Level Denver Center
10:24PM 40.3889 -108.4164 73° East 431 496 37,000  Level Denver Center
10:25PM 40.4047 -108.3556 71° East 433 498 37,000  Level Salt Lake Center
10:26PM 40.4444 -108.1900 72° East 429 494 37,000  Level Salt Lake Center
10:26PM 40.4642 -108.1069 73° East 426 490 37,000  Level Denver Center
10:27PM 40.4986 -107.9622 73° East 431 496 37,000  Level Denver Center
10:28PM 40.5389 -107.7950 72° East 430 495 37,000  Level Denver Center
10:29PM 40.5736 -107.6517 72° East 430 495 37,000  Level Denver Center
10:31PM 40.6125 -107.4833 73° East 431 496 37,000  Level Denver Center
10:32PM 40.6461 -107.3389 73° East 430 495 37,000  Level Denver Center
10:33PM 40.6808 -107.1892 73° East 430 495 37,000  Level Denver Center
10:34PM 40.7169 -107.0358 73° East 434 499 37,000  Level Denver Center
10:35PM 40.7550 -106.8717 73° East 430 495 37,000  Level Denver Center
10:36PM 40.7933 -106.7031 73° East 433 498 37,000  Level Denver Center
10:37PM 40.8267 -106.5567 73° East 436 502 37,000  Level Denver Center
10:38PM 40.8575 -106.4114 74° East 432 497 37,000  Level Denver Center
10:39PM 40.8958 -106.2414 73° East 433 498 37,000  Level Denver Center
10:40PM 40.9339 -106.0750 73° East 434 499 37,000  Level Denver Center
10:41PM 40.9661 -105.9217 74° East 431 496 37,000  Level Denver Center
10:42PM 41.0003 -105.7669 74° East 431 496 37,000  Level Denver Center
10:43PM 41.0319 -105.6186 74° East 436 502 37,000  Level Denver Center
10:44PM 41.0681 -105.4497 74° East 430 495 37,000  Level Denver Center
10:45PM 41.0994 -105.3011 74° East 433 498 37,000  Level Denver Center
10:46PM 41.1311 -105.1561 74° East 431 496 37,000  Level Denver Center
10:47PM 41.1667 -104.9842 75° East 434 499 37,000  Level Denver Center
10:48PM 41.1964 -104.8364 75° East 433 498 37,000  Level Denver Center
10:49PM 41.2308 -104.6661 75° East 429 494 37,000  Level Denver Center
10:50PM 41.2578 -104.5178 76° East 432 497 37,000  Level Denver Center
10:51PM 41.2875 -104.3469 77° East 426 490 37,000  Level Denver Center
10:52PM 41.3147 -104.1975 76° East 433 498 37,000  Level Denver Center
10:53PM 41.3408 -104.0503 77° East 431 496 37,000  Level Denver Center
10:54PM 41.3706 -103.8767 77° East 431 496 37,000  Level Denver Center
10:55PM 41.3969 -103.7269 77° East 434 499 37,000  Level Denver Center
10:56PM 41.4267 -103.5528 77° East 435 501 37,000  Level Denver Center
10:57PM 41.4522 -103.4039 77° East 433 498 37,000  Level Denver Center
10:58PM 41.4817 -103.2294 77° East 434 499 37,000  Level Denver Center
10:59PM 41.5050 -103.0811 78° East 430 495 37,000  Level Denver Center
11:00PM 41.5303 -102.9322 77° East 431 496 37,000  Level Denver Center
11:01PM 41.5592 -102.7569 78° East 433 498 37,000  Level Denver Center
11:02PM 41.5867 -102.5914 77° East 431 496 37,000  Level Denver Center
11:03PM 41.6114 -102.4406 78° East 432 497 37,000  Level Denver Center
11:04PM 41.6347 -102.2900 78° East 432 497 37,000  Level Denver Center
11:05PM 41.6628 -102.1133 78° East 434 499 37,000  Level Denver Center
11:06PM 41.6869 -101.9622 78° East 434 499 37,000 120 Level Denver Center
11:07PM 41.7150 -101.7853 78° East 434 499 37,300 300 Climbing Denver Center
11:09PM 41.7336 -101.6583 79° East 434 499 37,700 480 Climbing Denver Center
11:10PM 41.7608 -101.4814 78° East 434 499 38,300 480 Climbing Denver Center
11:11PM 41.7875 -101.3039 79° East 434 499 38,800 300 Climbing Denver Center
11:12PM 41.8103 -101.1506 79° East 437 503 39,000 60 Climbing Denver Center
11:13PM 41.8364 -100.9711 79° East 438 504 39,000  Level Denver Center
11:14PM 41.8597 -100.8183 78° East 437 503 39,000  Level Denver Center
11:15PM 41.8822 -100.6639 79° East 438 504 39,000  Level Denver Center
11:16PM 41.9072 -100.4850 79° East 437 503 39,000  Level Denver Center
11:17PM 41.9289 -100.3289 79° East 441 507 39,000  Level Denver Center
11:18PM 41.9539 -100.1506 79° East 437 503 39,000  Level Denver Center
11:19PM 41.9758 -99.9950 79° East 439 505 39,000  Level Denver Center
11:20PM 41.9972 -99.8408 79° East 439 505 39,000  Level Denver Center
11:21PM 42.0144 -99.6744 82° East 444 511 39,000  Level Denver Center
11:22PM 42.0283 -99.5083 84° East 445 512 39,000  Level Denver Center
11:23PM 42.0414 -99.3442 84° East 442 509 39,000  Level Denver Center
11:24PM 42.0547 -99.1778 84° East 446 513 39,000  Level Denver Center
11:25PM 42.0700 -98.9794 84° East 442 509 39,000 -240 Level Denver Center
11:26PM 42.0825 -98.8106 84° East 448 516 38,600 -1,020 Descending Denver Center
11:27PM 42.0942 -98.6467 84° East 443 510 37,000 -1,980 Descending Denver Center
11:28PM 42.1058 -98.4889 84° East 426 490 34,600 -2,760 Descending Denver Center
11:29PM 42.1186 -98.3314 84° East 426 490 31,400 -1,800 Descending Minneapolis Center
11:30PM 42.1306 -98.1667 84° East 438 504 31,000 -240 Descending Minneapolis Center
11:31PM 42.1408 -97.9944 85° East 455 524 31,000  Level Minneapolis Center
11:32PM 42.1528 -97.8233 85° East 458 527 31,000  Level Minneapolis Center
11:33PM 42.1653 -97.6469 84° East 455 524 31,000  Level Minneapolis Center
11:34PM 42.1758 -97.4775 85° East 455 524 31,000  Level Minneapolis Center
11:35PM 42.1867 -97.3067 85° East 456 525 31,000  Level Minneapolis Center
11:36PM 42.1969 -97.1364 85° East 457 526 31,000  Level Minneapolis Center
11:37PM 42.2058 -96.9658 86° East 455 524 31,000  Level Minneapolis Center
11:38PM 42.2161 -96.7950 85° East 455 524 31,000  Level Minneapolis Center
11:39PM 42.2261 -96.6250 85° East 455 524 31,000  Level Minneapolis Center
11:40PM 42.2358 -96.4519 86° East 459 528 31,000  Level Minneapolis Center
11:41PM 42.2425 -96.3136 86° East 460 529 31,000  Level Minneapolis Center
11:42PM 42.2539 -96.1081 86° East 458 527 31,000  Level Minneapolis Center
11:43PM 42.2622 -95.9347 86° East 460 529 31,000  Level Minneapolis Center
11:44PM 42.2708 -95.7619 86° East 461 531 31,000  Level Minneapolis Center
11:45PM 42.2808 -95.5542 86° East 460 529 31,000  Level Minneapolis Center
11:46PM 42.2878 -95.3800 87° East 463 533 31,000  Level Minneapolis Center
11:47PM 42.2958 -95.2047 86° East 466 536 31,000  Level Minneapolis Center
11:48PM 42.3033 -95.0294 87° East 467 537 31,000  Level Minneapolis Center
11:49PM 42.3106 -94.8531 87° East 469 540 31,000  Level Minneapolis Center
11:50PM 42.3178 -94.6761 87° East 471 542 31,000  Level Minneapolis Center
11:51PM 42.3231 -94.4986 88° East 472 543 31,000  Level Minneapolis Center
11:52PM 42.3314 -94.3200 86° East 473 544 31,000  Level Minneapolis Center
11:53PM 42.3431 -94.1428 85° East 472 543 31,000 240 Level Minneapolis Center
11:54PM 42.3544 -93.9653 85° East 477 549 31,600 600 Climbing Minneapolis Center
11:55PM 42.3658 -93.7883 85° East 478 550 32,300 660 Climbing Minneapolis Center
11:56PM 42.3769 -93.6136 85° East 473 544 33,000 300 Climbing Minneapolis Center
11:57PM 42.3872 -93.4397 85° East 469 540 33,000  Level Minneapolis Center
11:58PM 42.3922 -93.2644 88° East 471 542 33,000  Level Minneapolis Center
11:59PM 42.3950 -93.0878 89° East 474 545 33,000 -360 Level Minneapolis Center
12:01AM 42.3972 -92.8792 89° East 468 539 32,300 -1,740 Descending Minneapolis Center
12:02AM 42.4000 -92.6714 89° East 465 535 29,200 -1,500 Descending Minneapolis Center
12:03AM 42.4022 -92.4969 89° East 468 539 29,000 -120 Descending Minneapolis Center
12:04AM 42.4044 -92.2861 89° East 472 543 29,000  Level Minneapolis Center
12:05AM 42.4053 -92.1092 90° East 475 547 29,000  Level Minneapolis Center
12:05AM 42.4061 -92.0358 89° East 478 550 29,000  Level Chicago Center
12:06AM 42.4083 -91.8614 89° East 475 547 29,000  Level Chicago Center
12:07AM 42.4075 -91.6872 90° East 473 544 29,000  Level Chicago Center
12:08AM 42.4086 -91.5092 89° East 481 554 29,000  Level Chicago Center
12:09AM 42.4094 -91.2953 90° East 483 556 29,000  Level Chicago Center
12:10AM 42.4081 -91.1175 91° East 483 556 29,000  Level Chicago Center
12:11AM 42.4075 -90.9369 90° East 487 560 29,000  Level Chicago Center
12:12AM 42.4069 -90.7575 90° East 484 557 29,000  Level Chicago Center
12:13AM 42.4050 -90.5764 91° East 487 560 29,000  Level Chicago Center
12:14AM 42.4047 -90.3944 90° East 489 563 29,000 -120 Level Chicago Center
12:15AM 42.4033 -90.2111 91° East 491 565 28,800 -600 Descending Chicago Center
12:16AM 42.4008 -90.0333 91° East 477 549 27,900 -1,020 Descending Chicago Center
12:17AM 42.3983 -89.8347 91° East 480 552 26,800 -1,500 Descending Chicago Center
12:18AM 42.3961 -89.6553 91° East 479 551 24,900 -1,440 Descending Chicago Center
12:19AM 42.3942 -89.4928 91° East 440 506 23,900 -1,740 Descending Chicago Center
12:20AM 42.3914 -89.3403 91° East 411 473 21,400 -2,460 Descending Chicago Center
12:21AM 42.3886 -89.1917 91° East 398 458 19,000 -2,340 Descending Chicago Center
12:22AM 42.3864 -89.0514 91° East 379 436 16,800 -2,460 Descending Chicago Center
12:23AM 42.3833 -88.9161 92° East 365 420 14,100 -2,580 Descending Chicago Center
12:24AM 42.3814 -88.7875 91° East 345 397 11,700 -2,160 Descending Chicago Center
12:25AM 42.3672 -88.6764 100° East 302 348 9,800 -1,380 Descending Chicago Center
12:26AM 42.3419 -88.5731 108° East 290 334 9,000 -540 Descending Chicago Center
12:27AM 42.3175 -88.4703 108° East 291 335 8,800 -960 Descending Chicago Center
12:28AM 42.2931 -88.3714 108° East 283 326 7,100 -1,620 Descending Chicago Center
12:29AM 42.2744 -88.2672 104° East 284 327 5,600 -1,260 Descending Chicago Center
12:30AM 42.2383 -88.1825 120° Southeast 273 314 4,600 -840 Descending Chicago Center
12:31AM 42.1894 -88.1286 141° Southeast 235 270 4,000 -300 Descending Chicago Center
12:33AM 42.1464 -88.0775 139° Southeast 214 246 4,000 -300 Level Chicago Center
12:34AM 42.1078 -88.0347 141° Southeast 194 223 3,400 -840 Descending Chicago Center
12:34AM 42.0833 -88.0167 151° Southeast 178 205 2,800 -1,440 Descending Chicago TRACON